createdAt,value
2023-03-18T00:09:36.461Z,3.95
2023-03-18T00:20:06.163Z,3.84
2023-03-18T00:30:32.239Z,3.80
2023-03-18T00:41:11.056Z,3.75
2023-03-18T00:51:38.837Z,3.68
2023-03-18T01:02:04.978Z,3.56
2023-03-18T01:12:31.271Z,3.49
2023-03-18T01:22:57.148Z,3.44
2023-03-18T01:33:23.124Z,3.41
2023-03-18T01:43:48.874Z,3.50
2023-03-18T01:54:15.994Z,3.50
2023-03-18T02:04:44.200Z,3.48
2023-03-18T02:15:15.047Z,3.41
2023-03-18T02:25:47.770Z,3.37
2023-03-18T02:36:15.634Z,3.18
2023-03-18T02:46:52.379Z,3.15
2023-03-18T02:57:18.140Z,3.14
2023-03-18T03:07:44.062Z,2.97
2023-03-18T03:18:10.287Z,2.85
2023-03-18T03:28:36.683Z,2.87
2023-03-18T03:39:02.416Z,2.90
2023-03-18T03:49:27.997Z,2.73
2023-03-18T03:59:53.470Z,2.74
2023-03-18T04:10:22.754Z,2.76
2023-03-18T04:20:49.769Z,2.78
2023-03-18T04:31:16.858Z,2.78
2023-03-18T04:41:42.694Z,2.80
2023-03-18T04:52:09.432Z,2.82
2023-03-18T05:02:35.574Z,2.64
2023-03-18T05:13:02.135Z,2.56
2023-03-18T05:23:28.808Z,2.42
2023-03-18T05:33:54.542Z,2.43
2023-03-18T05:44:20.585Z,2.42
2023-03-18T05:54:46.647Z,2.50
2023-03-18T06:05:12.780Z,2.62
2023-03-18T06:15:39.116Z,2.83
2023-03-18T06:26:05.036Z,3.22
2023-03-18T06:36:30.680Z,3.76
2023-03-18T06:46:56.380Z,4.34
2023-03-18T06:57:22.358Z,4.84
2023-03-18T07:07:48.630Z,5.27
2023-03-18T07:18:14.303Z,5.75
2023-03-18T07:28:39.996Z,6.34
2023-03-18T07:39:06.259Z,6.99
2023-03-18T07:49:32.700Z,7.49
2023-03-18T07:59:58.320Z,7.87
2023-03-18T08:10:25.477Z,8.16
2023-03-18T08:20:53.242Z,8.12
2023-03-18T08:31:18.955Z,8.08
2023-03-18T08:41:45.902Z,8.31
2023-03-18T08:52:11.941Z,8.56
2023-03-18T09:02:37.849Z,8.80
2023-03-18T09:13:03.565Z,9.04
2023-03-18T09:23:29.219Z,9.32
2023-03-18T09:33:54.857Z,9.59
2023-03-18T09:44:26.618Z,9.87
2023-03-18T09:54:58.900Z,10.19
2023-03-18T10:05:41.946Z,10.44
2023-03-18T10:16:13.840Z,10.69
2023-03-18T10:26:48.867Z,10.83
2023-03-18T10:37:25.206Z,11.00
2023-03-18T10:47:59.019Z,11.17
2023-03-18T10:58:24.537Z,11.23
2023-03-18T11:08:51.554Z,11.31
2023-03-18T11:19:32.373Z,11.47
2023-03-18T11:30:01.459Z,11.66
2023-03-18T11:40:32.427Z,11.79
2023-03-18T11:51:12.195Z,11.87
2023-03-18T12:01:46.313Z,12.07
2023-03-18T12:12:24.444Z,12.39
2023-03-18T12:23:03.420Z,12.62
2023-03-18T12:33:50.970Z,12.82
2023-03-18T12:44:29.583Z,12.98
2023-03-18T12:55:05.878Z,13.05
2023-03-18T13:05:40.974Z,13.08
2023-03-18T13:16:09.204Z,13.13
2023-03-18T13:26:49.732Z,13.13
2023-03-18T13:37:46.577Z,13.17
2023-03-18T13:48:18.459Z,13.24
2023-03-18T13:58:48.797Z,13.33
2023-03-18T14:09:35.581Z,13.38
2023-03-18T14:20:17.568Z,13.37
2023-03-18T14:31:00.701Z,13.43
2023-03-18T14:41:29.927Z,13.48
2023-03-18T14:51:56.590Z,13.49
2023-03-18T15:02:29.717Z,13.43
2023-03-18T15:13:07.074Z,13.37
2023-03-18T15:23:36.752Z,13.33
2023-03-18T15:34:16.104Z,13.28
2023-03-18T15:44:44.112Z,13.25
2023-03-18T15:55:29.749Z,13.18
2023-03-18T16:05:56.801Z,13.10
2023-03-18T16:16:30.692Z,13.10
2023-03-18T16:26:57.746Z,13.15
2023-03-18T16:37:26.367Z,13.11
2023-03-18T16:47:55.729Z,13.10
2023-03-18T16:58:26.693Z,13.09
2023-03-18T17:08:52.793Z,12.93
2023-03-18T17:19:19.072Z,12.67
2023-03-18T17:29:45.262Z,12.44
2023-03-18T17:40:13.448Z,12.33
2023-03-18T17:50:39.896Z,12.18
2023-03-18T18:01:13.522Z,11.94
2023-03-18T18:11:44.380Z,11.56
2023-03-18T18:22:17.530Z,11.26
2023-03-18T18:32:43.919Z,10.81
2023-03-18T18:43:09.581Z,10.29
2023-03-18T18:53:37.316Z,10.04
2023-03-18T19:04:03.877Z,9.68
2023-03-18T19:14:31.603Z,9.33
2023-03-18T19:24:57.563Z,9.01
2023-03-18T19:35:23.520Z,8.56
2023-03-18T19:45:51.885Z,8.35
2023-03-18T19:56:25.800Z,8.28
2023-03-18T20:06:51.611Z,8.03
2023-03-18T20:17:39.167Z,7.70
2023-03-18T20:28:05.012Z,7.52
2023-03-18T20:38:33.895Z,7.34
2023-03-18T20:48:59.641Z,7.20
2023-03-18T20:59:25.742Z,7.06
2023-03-18T21:09:52.084Z,6.97
2023-03-18T21:20:22.396Z,6.80
2023-03-18T21:30:50.274Z,6.62
2023-03-18T21:41:22.465Z,6.41
2023-03-18T21:51:48.363Z,6.21
2023-03-18T22:02:31.684Z,6.12
2023-03-18T22:12:57.596Z,5.93
2023-03-18T22:23:26.700Z,5.86
2023-03-18T22:33:52.553Z,5.79
2023-03-18T22:44:23.984Z,5.77
2023-03-18T22:54:51.179Z,5.63
2023-03-18T23:05:20.339Z,5.46
2023-03-18T23:15:46.505Z,5.44
2023-03-18T23:26:12.204Z,5.34
2023-03-18T23:36:38.003Z,5.26
2023-03-18T23:47:03.814Z,5.30
2023-03-18T23:57:30.067Z,5.27
